Terminal Aerodrome Forecast
Issued by NWS Grand Forks, ND

Home | Current Version | Previous Version | Text Only | Print | Product List | Glossary Off
Versions: 1 2 3 4 5 6 7 8 9 10 11 12 13 14 15 16 17

000
FTUS43 KFGF 221400 AAA
TAFGFK
TAF AMD
KGFK 221427Z 2214/2312 10005KT 5SM BR OVC006
      TEMPO 2214/2218 3SM -DZ BR OVC004
     FM221800 08009KT 2SM -RASN BR OVC005
     FM230000 03010KT 2SM -SN OVC007=

USA.gov is the U.S. government's official web portal to all federal, state and local government web resources and services.